createdAt,value
2023-03-11T00:00:31.991Z,5.13
2023-03-11T00:10:40.622Z,4.94
2023-03-11T00:20:48.424Z,4.71
2023-03-11T00:30:54.677Z,4.46
2023-03-11T00:41:01.754Z,4.39
2023-03-11T00:51:12.692Z,4.54
2023-03-11T01:01:21.525Z,4.74
2023-03-11T01:11:27.184Z,4.92
2023-03-11T01:21:34.949Z,5.10
2023-03-11T01:31:40.866Z,5.26
2023-03-11T01:41:46.583Z,5.45
2023-03-11T01:51:55.498Z,5.53
2023-03-11T02:02:09.614Z,5.55
2023-03-11T02:12:16.586Z,5.61
2023-03-11T02:22:23.784Z,5.70
2023-03-11T02:32:29.985Z,5.76
2023-03-11T02:42:35.857Z,5.77
2023-03-11T02:52:41.867Z,5.80
2023-03-11T03:02:51.837Z,5.81
2023-03-11T03:12:57.528Z,5.81
2023-03-11T03:23:03.429Z,5.82
2023-03-11T03:33:10.015Z,5.85
2023-03-11T03:43:16.005Z,5.84
2023-03-11T03:53:21.851Z,5.76
2023-03-11T04:03:28.493Z,5.64
2023-03-11T04:13:34.160Z,5.54
2023-03-11T04:23:39.776Z,5.48
2023-03-11T04:33:45.429Z,5.43
2023-03-11T04:43:51.170Z,5.34
2023-03-11T04:53:56.901Z,5.22
2023-03-11T05:04:02.655Z,5.12
2023-03-11T05:14:08.391Z,5.04
2023-03-11T05:24:14.267Z,4.95
2023-03-11T05:34:20.425Z,4.76
2023-03-11T05:44:26.149Z,4.49
2023-03-11T05:54:31.871Z,4.28
2023-03-11T06:04:37.845Z,4.06
2023-03-11T06:14:44.059Z,3.88
2023-03-11T06:24:49.707Z,3.75
2023-03-11T06:34:55.985Z,3.56
2023-03-11T06:45:03.747Z,3.59
2023-03-11T06:55:11.051Z,3.65
2023-03-11T07:05:18.143Z,3.62
2023-03-11T07:15:22.399Z,3.26
2023-03-11T07:25:28.683Z,2.89
2023-03-11T07:35:36.304Z,2.84
2023-03-11T07:45:41.968Z,2.86
2023-03-11T07:55:47.722Z,2.90
2023-03-11T08:05:54.020Z,2.89
2023-03-11T08:15:59.733Z,2.55
2023-03-11T08:26:07.596Z,2.43
2023-03-11T08:36:13.506Z,2.27
2023-03-11T08:46:23.908Z,2.14
2023-03-11T08:56:30.165Z,2.00
2023-03-11T09:06:36.459Z,1.82
2023-03-11T09:16:42.314Z,1.75
2023-03-11T09:26:48.111Z,1.26
2023-03-11T09:36:53.797Z,0.96
2023-03-11T09:47:37.000Z,0.60
2023-03-11T09:57:42.658Z,0.57
2023-03-11T10:07:54.934Z,0.56
2023-03-11T10:18:25.176Z,0.49
2023-03-11T10:28:37.654Z,0.55
2023-03-11T10:38:47.911Z,0.49
2023-03-11T10:48:53.726Z,0.33
2023-03-11T10:58:59.987Z,0.19
2023-03-11T11:09:22.957Z,0.84
2023-03-11T11:19:30.915Z,0.52
2023-03-11T11:29:36.709Z,0.63
2023-03-11T11:39:51.767Z,0.15
2023-03-11T11:50:02.104Z,0.10
2023-03-11T12:00:21.694Z,0.25
2023-03-11T12:10:32.274Z,0.01
2023-03-11T12:20:43.498Z,-0.28
2023-03-11T12:30:53.403Z,-0.29
2023-03-11T12:41:07.681Z,-0.40
2023-03-11T13:01:55.155Z,-0.52
2023-03-11T13:12:01.757Z,-0.74
2023-03-11T13:22:06.967Z,-0.66
2023-03-11T13:32:48.907Z,-0.70
2023-03-11T13:42:59.151Z,-0.79
2023-03-11T13:53:09.210Z,-0.73
2023-03-11T14:03:19.201Z,-0.61
2023-03-11T14:13:26.863Z,-0.67
2023-03-11T14:23:37.263Z,-0.64
2023-03-11T14:33:42.905Z,-0.65
2023-03-11T14:43:52.912Z,-0.73
2023-03-11T14:54:07.606Z,-0.78
2023-03-11T15:04:16.087Z,-0.80
2023-03-11T15:14:25.642Z,-0.92
2023-03-11T15:24:33.772Z,-0.89
2023-03-11T15:34:39.544Z,-0.61
2023-03-11T15:44:50.214Z,-0.29
2023-03-11T15:54:56.314Z,-0.29
2023-03-11T16:05:02.261Z,-0.55
2023-03-11T16:15:17.412Z,-0.67
2023-03-11T16:25:27.221Z,-0.75
2023-03-11T16:35:33.300Z,-0.77
2023-03-11T16:45:39.238Z,-0.79
2023-03-11T16:55:46.916Z,-0.84
2023-03-11T17:06:01.141Z,-0.93
2023-03-11T17:16:08.264Z,-1.08
2023-03-11T17:26:15.544Z,-1.28
2023-03-11T17:36:21.773Z,-1.47
2023-03-11T17:46:25.941Z,-1.44
2023-03-11T17:56:31.783Z,-1.29
2023-03-11T18:06:38.436Z,-1.38
2023-03-11T18:16:47.331Z,-1.65
2023-03-11T18:26:53.083Z,-1.97
2023-03-11T18:36:58.791Z,-2.10
2023-03-11T18:47:04.472Z,-2.10
2023-03-11T18:57:10.420Z,-2.05
2023-03-11T19:07:16.077Z,-2.24
2023-03-11T19:17:21.747Z,-2.48
2023-03-11T19:27:27.536Z,-2.64
2023-03-11T19:37:34.153Z,-2.52
2023-03-11T19:47:40.161Z,-2.23
2023-03-11T19:57:44.332Z,-1.97
2023-03-11T20:07:49.961Z,-1.82
2023-03-11T20:17:56.006Z,-1.78
2023-03-11T20:28:02.451Z,-1.70
2023-03-11T20:38:09.381Z,-1.67
2023-03-11T20:48:15.175Z,-1.58
2023-03-11T20:58:20.894Z,-1.49
2023-03-11T21:08:26.579Z,-1.34
2023-03-11T21:18:32.723Z,-1.25
2023-03-11T21:28:40.070Z,-1.30
2023-03-11T21:38:46.302Z,-1.35
2023-03-11T21:48:52.416Z,-1.44
2023-03-11T21:58:58.607Z,-1.77
2023-03-11T22:09:03.516Z,-2.03
2023-03-11T22:19:11.247Z,-2.05
2023-03-11T22:29:16.936Z,-2.21
2023-03-11T22:39:22.580Z,-2.44
2023-03-11T22:49:28.403Z,-2.62
2023-03-11T22:59:34.074Z,-2.63
2023-03-11T23:09:39.828Z,-2.63
2023-03-11T23:19:45.505Z,-2.82
2023-03-11T23:29:50.599Z,-2.99
2023-03-11T23:39:56.247Z,-3.14
2023-03-11T23:50:00.485Z,-3.33
